Date,TemperatureHighF,TemperatureAvgF,TemperatureLowF,DewpointHighF,DewpointAvgF,DewpointLowF,HumidityHigh,HumidityAvg,HumidityLow,PressureMaxIn,PressureMinIn,WindSpeedMaxMPH,WindSpeedAvgMPH,GustSpeedMaxMPH,PrecipitationSumIn
2013-1-1,17.0,8.8,3.0,12.0,5.1,0.0,92,85,69,0.00,40.00,9,3,19,0.00
2013-1-2,23.0,12.8,4.0,10.0,6.5,-1.0,91,77,52,0.00,40.00,11,5,30,0.00
2013-1-3,24.0,11.5,2.0,7.0,-3.2,-15.0,76,53,31,0.00,40.00,5,3,12,0.00
2013-1-4,44.0,22.0,12.0,12.0,-1.6,-12.0,55,37,15,0.00,40.00,5,2,10,0.01
2013-1-5,27.0,17.2,8.0,12.0,1.2,-9.0,71,50,30,0.00,40.00,7,3,11,0.01
2013-1-6,33.0,26.4,19.0,12.0,3.2,-4.0,52,37,22,0.00,40.00,18,10,29,0.00
2013-1-7,33.0,22.7,16.0,16.0,6.6,-1.0,77,50,32,0.00,40.00,13,7,24,0.00
2013-1-8,33.0,24.1,19.0,26.0,18.3,12.0,93,79,55,0.00,40.00,13,7,32,0.00
2013-1-9,41.0,30.4,21.0,21.0,16.7,9.0,94,61,33,0.00,40.00,16,11,29,0.00
2013-1-10,37.0,34.1,29.0,20.0,11.8,5.0,70,41,29,0.00,40.00,22,16,47,0.00
2013-1-11,29.0,9.5,-6.0,20.0,4.6,-10.0,96,81,62,0.00,40.00,16,7,33,0.00
2013-1-12,3.0,-4.1,-8.0,-2.0,-8.3,-12.0,82,81,78,0.00,40.00,4,2,13,0.00
2013-1-13,6.0,-2.9,-12.0,0.0,-7.6,-16.0,84,80,72,0.00,40.00,5,2,13,0.00
2013-1-14,2.0,-5.1,-11.0,-4.0,-9.8,-15.0,82,79,71,0.00,40.00,12,4,20,0.00
2013-1-15,17.0,6.2,-6.0,10.0,1.5,-10.0,89,81,63,0.00,40.00,8,4,18,0.00
2013-1-16,29.0,16.5,11.0,17.0,10.3,5.0,91,78,54,0.00,40.00,7,4,19,0.00
2013-1-17,33.0,21.8,13.0,16.0,9.2,-1.0,83,60,38,0.00,40.00,11,4,19,0.02
2013-1-18,35.0,25.4,18.0,16.0,7.6,1.0,62,48,32,0.00,40.00,13,6,22,0.02
2013-1-19,34.0,25.8,20.0,15.0,8.4,0.0,62,48,32,0.00,40.00,13,5,21,0.00
2013-1-20,33.0,23.5,16.0,16.0,9.7,5.0,79,56,36,0.00,40.00,15,4,25,0.00
2013-1-21,39.0,25.7,15.0,19.0,9.6,5.0,84,53,28,0.00,40.00,10,5,26,0.00
2013-1-22,39.0,28.7,19.0,15.0,6.5,-5.0,58,40,21,0.00,40.00,10,4,19,0.00
2013-1-23,42.0,33.9,28.0,9.0,2.9,-2.0,36,27,21,0.00,40.00,13,8,29,0.00
2013-1-24,37.0,32.6,29.0,31.0,19.9,7.0,99,63,31,0.00,40.00,18,9,34,0.00
2013-1-25,39.0,30.5,25.0,27.0,24.4,20.0,97,79,49,0.00,40.00,21,12,36,0.00
2013-1-26,41.0,33.1,27.0,30.0,25.6,20.0,93,74,59,0.00,40.00,13,7,26,0.00
2013-1-27,38.0,33.3,30.0,30.0,27.3,25.0,97,79,65,0.00,40.00,15,9,31,0.00
2013-1-28,31.0,22.7,10.0,30.0,21.3,8.0,99,94,79,0.00,40.00,8,3,26,0.00
2013-1-29,24.0,10.1,0.0,16.0,5.9,-2.0,92,84,55,0.00,40.00,17,4,26,0.00
2013-1-30,22.0,13.5,4.0,18.0,9.5,1.0,91,85,74,0.00,40.00,7,4,20,0.00
2013-1-31,38.0,25.4,18.0,25.0,19.2,15.0,95,79,49,0.00,40.00,8,4,21,0.01
2013-2-1,32.0,24.0,20.0,25.0,21.0,19.0,98,88,63,0.00,40.00,10,5,23,0.01
2013-2-2,41.0,24.0,14.0,27.0,15.5,11.0,95,73,32,0.00,40.00,9,4,20,0.01
2013-2-3,33.0,25.7,19.0,21.0,15.2,10.0,81,66,45,0.00,40.00,12,5,22,0.01
2013-2-4,38.0,26.0,18.0,21.0,13.7,8.0,77,61,35,0.00,40.00,13,5,27,0.00
2013-2-5,38.0,28.7,19.0,20.0,17.2,12.0,86,63,44,0.00,40.00,14,7,25,0.00
2013-2-6,41.0,30.8,23.0,24.0,17.7,8.0,93,60,31,0.00,40.00,8,4,16,0.00
2013-2-7,33.0,24.4,16.0,20.0,10.5,-2.0,97,60,28,0.00,40.00,13,7,25,0.00
2013-2-8,44.0,29.7,23.0,25.0,12.8,-1.0,87,51,30,0.00,40.00,14,7,24,0.00
2013-2-9,22.0,19.3,17.0,19.0,16.1,14.0,94,87,77,0.00,40.00,14,11,27,0.00
2013-2-10,17.0,13.1,0.0,16.0,10.9,-3.0,94,91,84,0.00,40.00,14,8,27,0.00
2013-2-11,20.0,6.6,-2.0,14.0,3.2,-5.0,91,86,74,0.00,40.00,7,2,14,0.00
2013-2-12,18.0,9.5,1.0,14.0,5.0,-2.0,93,82,65,0.00,40.00,12,4,23,0.00
2013-2-13,30.0,20.0,12.0,26.0,16.1,10.0,96,86,61,0.00,40.00,10,4,21,0.00
2013-2-14,20.0,15.5,12.0,19.0,13.7,10.0,98,92,88,0.00,40.00,19,6,56,0.00
2013-2-15,26.0,17.5,11.0,20.0,13.3,9.0,94,84,69,0.00,40.00,10,4,21,0.00
2013-2-16,34.0,24.8,15.0,27.0,16.0,9.0,92,71,47,0.00,40.00,10,5,20,0.00
2013-2-17,32.0,25.9,18.0,23.0,15.3,7.0,96,66,44,0.00,40.00,13,8,27,0.01
2013-2-18,28.0,17.1,10.0,19.0,13.3,4.0,94,85,57,0.00,40.00,8,3,19,0.01
2013-2-19,34.0,24.4,14.0,12.0,3.3,-5.0,64,41,25,0.00,40.00,16,10,27,0.00
2013-2-20,47.0,26.0,16.0,23.0,9.0,-3.0,96,53,19,0.00,40.00,9,4,16,0.00
2013-2-21,21.0,15.4,13.0,17.0,13.3,11.0,96,92,86,0.00,40.00,6,3,15,0.00
2013-2-22,24.0,15.9,10.0,13.0,10.4,8.0,94,80,53,0.00,40.00,14,5,24,0.00
2013-2-23,24.0,17.4,11.0,21.0,15.0,9.0,96,91,74,0.00,40.00,27,10,34,0.00
2013-2-24,23.0,16.6,13.0,21.0,14.5,8.0,94,92,86,0.00,40.00,38,18,197,0.00
2013-2-25,24.0,14.7,5.0,13.0,7.5,2.0,93,75,55,0.00,40.00,11,6,22,0.00
2013-2-26,21.0,17.3,14.0,19.0,15.4,11.0,95,92,73,0.00,40.00,33,10,170,0.00
2013-2-27,25.0,14.2,5.0,15.0,9.4,3.0,93,82,63,0.00,40.00,8,3,17,0.00
2013-2-28,29.0,17.2,7.0,20.0,8.6,-2.0,90,70,46,0.00,40.00,9,4,18,0.00
2013-3-1,37.0,27.4,19.0,26.0,16.6,9.0,81,64,40,0.00,40.00,4,3,14,0.00
2013-3-2,40.0,31.8,22.0,31.0,24.2,16.0,95,75,54,0.00,40.00,14,5,18,0.01
2013-3-3,38.0,32.9,30.0,30.0,25.8,21.0,89,75,63,0.00,40.00,15,10,28,0.01
2013-3-4,25.0,16.4,7.0,22.0,8.2,-2.0,97,72,37,0.00,40.00,16,10,41,0.00
2013-3-5,32.0,18.9,2.0,13.0,3.8,-3.0,89,56,28,0.00,40.00,13,6,24,0.00
2013-3-6,44.0,34.4,27.0,24.0,13.0,2.0,51,41,29,0.00,40.00,21,11,34,0.01
2013-3-7,43.0,36.2,28.0,24.0,20.7,15.0,80,54,41,0.00,40.00,14,6,33,0.01
2013-3-8,52.0,36.9,32.0,24.0,13.3,-99.9,62,43,26,0.00,40.00,16,5,23,0.00
2013-3-9,33.0,24.1,19.0,29.0,20.3,14.0,98,86,65,0.00,40.00,23,14,45,0.00
2013-3-10,42.0,29.1,15.0,23.0,15.4,5.0,95,60,31,0.00,40.00,12,5,24,0.01
2013-3-11,32.0,26.3,19.0,25.0,20.2,16.0,95,78,63,0.00,40.00,15,6,33,0.01
2013-3-12,44.0,25.5,9.0,26.0,16.0,8.0,94,70,33,0.00,40.00,16,4,23,0.07
2013-3-13,53.0,36.8,27.0,30.0,24.0,19.0,85,62,30,0.00,40.00,12,5,22,0.04
2013-3-14,57.0,42.4,32.0,27.0,21.6,10.0,65,45,22,0.00,40.00,11,4,22,0.00
2013-3-15,59.0,45.2,35.0,26.0,20.0,14.0,70,38,22,0.00,40.00,12,6,26,0.00
2013-3-16,49.0,35.7,29.0,27.0,23.5,16.0,85,64,28,0.00,40.00,12,6,23,0.00
2013-3-17,34.0,28.6,15.0,29.0,15.1,2.0,97,60,28,0.00,40.00,22,12,46,0.00
2013-3-18,34.0,22.0,13.0,9.0,2.7,-2.0,83,45,22,0.00,40.00,13,7,31,0.00
2013-3-19,36.0,23.0,15.0,19.0,12.3,1.0,96,68,25,0.00,40.00,8,5,22,0.01
2013-3-20,40.0,28.8,15.0,30.0,10.2,-11.0,88,52,18,0.00,40.00,21,8,42,0.01
2013-3-21,33.0,28.3,20.0,30.0,25.7,19.0,96,90,83,0.00,40.00,26,9,38,0.00
2013-3-22,33.0,18.7,10.0,20.0,13.4,8.0,95,81,47,0.00,40.00,15,5,25,0.00
2013-3-23,30.0,13.1,4.0,12.0,3.7,-2.0,90,71,26,0.00,40.00,14,6,29,0.00
2013-3-24,20.0,10.2,3.0,10.0,3.5,-2.0,90,75,43,0.00,40.00,10,5,26,0.00
2013-3-25,29.0,16.1,2.0,9.0,3.3,-1.0,90,61,33,0.00,40.00,11,5,21,0.00
2013-3-26,38.0,27.2,16.0,30.0,14.1,1.0,97,59,39,0.00,40.00,8,4,21,0.12
2013-3-27,42.0,32.7,25.0,32.0,26.3,22.0,100,81,46,0.00,40.00,11,4,21,0.17
2013-3-28,56.0,48.5,38.0,24.0,19.4,14.0,44,32,23,0.00,40.00,5,4,16,0.01
2013-3-29,58.0,42.8,32.0,40.0,25.9,12.0,93,55,21,0.00,40.00,7,4,20,0.00
2013-3-30,46.0,34.9,29.0,34.0,27.9,20.0,98,77,43,0.00,40.00,9,4,22,0.07
2013-3-31,57.0,39.2,27.0,31.0,20.0,13.0,83,51,20,0.00,40.00,11,5,21,0.01
2013-4-1,46.0,35.2,28.0,28.0,21.7,15.0,75,59,40,0.00,40.00,12,7,21,0.00
2013-4-2,50.0,38.4,31.0,25.0,20.6,15.0,77,51,26,0.00,40.00,8,5,17,0.00
2013-4-3,60.0,40.2,29.0,43.0,22.9,14.0,91,55,23,0.00,40.00,7,3,25,0.04
2013-4-4,56.0,44.2,32.0,30.0,24.3,19.0,88,50,24,0.00,40.00,13,6,26,0.04
2013-4-5,52.0,45.0,34.0,35.0,25.4,18.0,82,47,33,0.00,40.00,19,10,42,0.00
2013-4-6,48.0,36.5,26.0,29.0,22.6,12.0,86,60,27,0.00,40.00,10,5,25,0.00
2013-4-7,42.0,36.5,29.0,29.0,26.0,19.0,90,67,42,0.00,40.00,22,10,37,0.00
2013-4-8,36.0,22.8,6.0,30.0,18.7,3.0,96,84,66,0.00,40.00,26,13,173,0.00
2013-4-9,6.0,3.6,1.0,3.0,0.4,-2.0,87,86,84,0.00,40.00,30,12,159,0.00
2013-4-10,28.0,14.6,3.0,18.0,8.1,0.0,89,76,54,0.00,40.00,5,3,16,0.02
2013-4-11,44.0,32.8,23.0,33.0,25.0,14.0,99,75,48,0.00,40.00,6,4,18,0.29
2013-4-12,41.0,30.4,24.0,31.0,24.0,17.0,99,79,46,0.00,40.00,15,4,31,0.15
2013-4-13,39.0,33.1,27.0,34.0,24.0,16.0,96,70,52,0.00,40.00,24,12,44,0.12
2013-4-14,31.0,24.2,17.0,25.0,14.9,4.0,98,71,35,0.00,40.00,13,8,32,0.00
2013-4-15,26.0,18.0,12.0,19.0,13.1,10.0,96,82,59,0.00,40.00,10,7,20,0.00
2013-4-16,18.0,13.0,11.0,16.0,10.7,9.0,92,90,86,0.00,40.00,15,12,195,0.00
2013-4-17,17.0,12.4,9.0,11.0,9.1,7.0,91,86,73,0.00,40.00,19,11,103,0.00
2013-4-18,10.0,10.0,10.0,8.0,8.0,8.0,90,90,90,0.00,40.00,3,3,16,0.00
2013-5-31,46.0,41.4,36.0,34.0,22.7,-99.9,92,65,56,0.00,40.00,15,-61,37,0.00
2013-6-1,60.0,45.1,33.0,35.0,33.4,32.0,98,68,34,0.00,40.00,7,4,27,0.01
2013-6-2,73.0,57.7,42.0,34.0,27.1,20.0,65,35,15,0.00,40.00,12,6,46,0.01
2013-6-3,65.0,57.7,40.0,37.0,21.3,8.0,77,27,12,0.00,40.00,15,9,44,0.00
2013-6-4,55.0,44.5,34.0,39.0,32.8,26.0,92,65,45,0.00,40.00,12,7,27,0.00
2013-6-5,63.0,47.2,30.0,37.0,29.2,14.0,100,58,15,0.00,40.00,8,4,17,0.00
2013-6-6,72.0,56.2,39.0,37.0,30.2,22.0,62,39,23,0.00,40.00,9,4,19,0.00
2013-6-7,73.0,58.8,44.0,41.0,35.2,25.0,79,44,18,0.00,40.00,8,4,21,0.00
2013-6-8,67.0,55.8,43.0,46.0,36.0,24.0,97,52,21,0.00,40.00,22,9,48,0.23
2013-6-9,82.0,63.6,46.0,36.0,30.5,24.0,68,33,13,0.00,40.00,9,4,27,0.12
2013-6-10,83.0,69.2,57.0,38.0,31.7,27.0,38,26,14,0.00,40.00,10,5,43,0.00
2013-6-11,75.0,66.8,56.0,34.0,25.6,15.0,43,23,11,0.00,40.00,20,8,41,0.00
2013-6-12,78.0,63.9,46.0,44.0,34.3,18.0,66,37,12,0.00,40.00,15,7,28,0.00
2013-6-13,75.0,65.5,58.0,45.0,36.8,27.0,60,37,19,0.00,40.00,29,11,55,0.00
2013-6-14,70.0,57.9,44.0,46.0,30.0,11.0,94,45,12,0.00,40.00,19,8,39,0.00
2013-6-15,69.0,55.2,41.0,40.0,33.5,15.0,88,51,13,0.00,40.00,9,6,22,0.00
2013-6-16,80.0,63.3,48.0,43.0,30.9,16.0,78,36,9,0.00,40.00,5,3,15,0.00
2013-6-17,72.0,59.2,48.0,46.0,39.7,34.0,92,52,26,0.00,40.00,8,5,23,0.00
2013-6-18,77.0,61.1,51.0,46.0,36.2,20.0,71,42,12,0.00,40.00,20,8,42,0.01
2013-6-19,79.0,66.4,53.0,41.0,23.1,6.0,62,27,6,0.00,40.00,22,14,43,0.01
2013-6-20,67.0,54.4,46.0,15.0,10.5,5.0,25,17,13,0.00,40.00,10,7,21,0.00
2013-6-22,69.0,57.9,45.0,49.0,40.6,27.0,96,56,26,0.00,40.00,19,9,45,0.00
2013-6-23,73.0,56.1,36.0,41.0,27.6,14.0,99,45,11,0.00,40.00,12,6,31,0.00
2013-6-24,77.0,66.9,55.0,35.0,20.6,12.0,42,19,10,0.00,40.00,18,8,33,0.00
2013-6-25,72.0,62.9,51.0,39.0,32.8,24.0,58,34,21,0.00,40.00,16,11,41,0.00
2013-6-26,82.0,68.9,53.0,39.0,33.5,27.0,48,29,14,0.00,40.00,12,8,33,0.00
2013-6-27,88.0,71.3,55.0,48.0,36.2,23.0,62,33,10,0.00,40.00,12,6,24,0.00
2013-6-28,85.0,69.4,56.0,47.0,43.3,33.0,60,42,17,0.00,40.00,12,7,22,0.00
2013-6-29,81.0,69.5,59.0,47.0,42.5,35.0,61,40,20,0.00,40.00,11,6,24,0.00
2013-6-30,74.0,63.6,51.0,53.0,45.9,41.0,94,55,34,0.00,40.00,13,5,26,0.17
2013-7-1,77.0,65.0,52.0,49.0,43.9,38.0,82,50,28,0.00,40.00,8,4,19,0.00
2013-7-2,77.0,66.0,57.0,45.0,39.9,34.0,58,41,21,0.00,40.00,7,5,21,0.00
2013-7-3,81.0,66.9,54.0,44.0,38.5,34.0,57,37,22,0.00,40.00,11,5,34,0.05
2013-7-4,80.0,66.0,54.0,52.0,44.1,38.0,89,49,25,0.00,40.00,11,4,23,0.26
2013-7-5,79.0,62.2,52.0,54.0,50.1,41.0,97,69,30,0.00,40.00,17,6,41,0.27
2013-7-6,81.0,61.0,50.0,53.0,47.8,26.0,92,68,14,0.00,40.00,11,6,41,0.24
2013-7-7,83.0,66.4,53.0,52.0,41.6,26.0,93,50,13,0.00,40.00,12,5,20,0.00
2013-7-8,77.0,64.5,49.0,47.0,41.8,33.0,88,47,23,0.00,40.00,13,5,26,0.00
2013-7-9,84.0,68.9,55.0,48.0,38.0,26.0,72,37,12,0.00,40.00,10,5,32,0.00
2013-7-10,87.0,71.5,60.0,49.0,33.8,-99.9,62,31,12,0.00,40.00,10,4,41,0.00
2013-7-11,89.0,77.8,64.0,50.0,32.6,21.0,55,24,9,0.00,40.00,13,8,28,0.00
2013-7-12,77.0,66.8,55.0,54.0,46.0,26.0,83,50,17,0.00,40.00,13,6,25,0.01
2013-7-13,75.0,64.7,56.0,52.0,46.4,35.0,75,54,24,0.00,40.00,15,4,25,0.01
2013-7-14,76.0,62.6,49.0,52.0,50.3,46.0,99,68,34,0.00,40.00,16,8,30,0.01
2013-7-15,81.0,67.2,57.0,55.0,49.9,39.0,82,58,28,0.00,40.00,9,6,18,0.00
2013-7-16,79.0,72.6,62.0,51.0,39.5,30.0,52,32,17,0.00,40.00,11,9,24,0.00
2013-7-17,83.0,69.1,52.0,51.0,44.8,38.0,66,44,26,0.00,40.00,6,4,15,0.00
2013-7-18,88.0,71.4,61.0,50.0,45.7,41.0,61,42,21,0.00,40.00,18,6,31,0.00
2013-7-19,80.0,66.5,54.0,49.0,46.8,43.0,84,52,28,0.00,40.00,21,6,34,0.00
2013-7-20,84.0,70.2,59.0,46.0,38.6,-99.9,58,35,14,0.00,40.00,11,6,24,0.00
2013-7-21,89.0,71.7,58.0,46.0,35.3,19.0,60,32,8,0.00,40.00,10,5,21,0.00
2013-7-22,87.0,71.7,54.0,48.0,33.1,5.0,72,34,5,0.00,40.00,17,6,27,0.00
2013-7-23,85.0,70.3,60.0,49.0,38.6,28.0,59,34,13,0.00,40.00,16,7,25,0.00
2013-7-24,80.0,66.6,55.0,53.0,46.4,39.0,71,50,30,0.00,40.00,8,6,20,0.02
2013-7-25,75.0,62.4,52.0,51.0,42.7,37.0,83,51,30,0.00,40.00,10,5,29,0.02
2013-7-26,82.0,64.9,50.0,46.0,38.9,24.0,72,44,12,0.00,40.00,8,5,20,0.01
2013-7-27,73.0,61.2,55.0,50.0,46.1,41.0,76,58,39,0.00,40.00,13,4,22,0.00
2013-7-28,77.0,60.7,51.0,50.0,45.5,35.0,93,62,22,0.00,40.00,23,4,39,0.05
2013-7-29,74.0,58.4,48.0,52.0,46.0,34.0,99,70,26,0.00,40.00,11,4,22,0.40
2013-7-30,75.0,61.7,52.0,48.0,43.2,35.0,76,54,27,0.00,40.00,10,6,24,0.40
2013-7-31,79.0,62.5,50.0,50.0,43.2,38.0,89,53,23,0.00,40.00,10,5,19,0.04
2013-8-1,83.0,67.7,59.0,51.0,42.2,34.0,63,42,17,0.00,40.00,22,8,40,0.04
2013-8-2,81.0,67.1,55.0,47.0,34.2,17.0,71,37,10,0.00,40.00,14,7,35,0.00
2013-8-3,79.0,65.8,53.0,53.0,46.9,29.0,89,56,22,0.00,40.00,17,6,32,0.00
2013-8-4,81.0,68.1,53.0,51.0,36.9,23.0,64,37,12,0.00,40.00,9,5,29,0.00
2013-8-5,83.0,65.3,52.0,56.0,44.8,22.0,97,57,12,0.00,40.00,10,4,38,0.00
2013-8-6,81.0,66.2,52.0,45.0,39.0,30.0,72,42,16,0.00,40.00,16,6,27,0.00
2013-8-7,79.0,63.5,52.0,47.0,40.8,26.0,75,49,14,0.00,40.00,12,5,23,0.00
2013-8-8,76.0,62.6,55.0,48.0,40.6,35.0,70,46,26,0.00,40.00,19,6,39,0.00
2013-8-9,72.0,57.7,49.0,48.0,41.6,37.0,93,57,34,0.00,40.00,11,5,26,0.19
2013-8-10,76.0,62.4,51.0,46.0,38.2,29.0,80,44,21,0.00,40.00,9,4,31,0.09
2013-8-11,77.0,62.9,55.0,45.0,38.3,32.0,64,42,20,0.00,40.00,9,5,17,0.00
2013-8-21,80.0,64.9,58.0,50.0,46.0,40.0,67,52,30,0.00,40.00,11,4,17,0.01
2013-8-22,83.0,65.4,54.0,52.0,45.8,36.0,73,52,19,0.00,40.00,13,6,36,0.00
2013-8-23,82.0,66.8,56.0,49.0,44.6,38.0,77,48,21,0.00,40.00,14,5,33,0.05
2013-8-24,75.0,62.6,54.0,48.0,42.6,35.0,71,52,25,0.00,40.00,17,8,31,0.01
2013-8-25,71.0,64.3,57.0,45.0,41.3,35.0,54,43,35,0.00,40.00,14,7,29,0.01
2013-8-26,75.0,65.2,56.0,50.0,46.0,40.0,78,52,30,0.00,40.00,13,10,27,0.00
2013-8-27,74.0,61.9,57.0,51.0,48.7,45.0,81,64,35,0.00,40.00,13,8,28,0.00
2013-9-24,65.0,51.1,39.0,33.0,27.0,22.0,64,42,21,0.00,40.00,17,10,35,0.01
2013-9-25,65.0,53.3,34.0,38.0,26.0,18.0,99,40,19,0.00,40.00,24,13,50,0.00
2013-9-26,57.0,40.4,32.0,40.0,34.9,32.0,100,84,46,0.00,40.00,14,6,36,0.42
2013-9-27,34.0,30.3,28.0,33.0,29.9,28.0,100,98,92,0.00,40.00,13,6,24,0.05
2013-9-28,48.0,36.2,27.0,35.0,30.8,27.0,100,82,59,0.00,40.00,18,9,35,0.69
2013-9-29,59.0,47.2,38.0,31.0,27.0,24.0,65,47,29,0.00,40.00,22,14,52,0.01
2013-9-30,64.0,53.9,45.0,32.0,27.9,25.0,54,38,27,0.00,40.00,24,15,54,0.01
2013-10-7,56.0,53.5,48.0,33.0,28.4,25.0,45,38,31,0.00,40.00,12,10,25,0.02
2013-10-8,55.0,49.5,47.0,39.0,33.7,32.0,59,54,43,0.00,40.00,10,8,23,0.02
2013-10-10,-200.0,0.0,200.0,-99.9,-99.9,-99.9,99,90,73,0.00,40.00,10,4,19,0.18
2013-10-11,-200.0,0.0,200.0,-99.9,-99.9,-99.9,98,95,93,0.00,40.00,9,5,25,0.28
2013-10-13,-200.0,0.0,200.0,-99.9,-99.9,-99.9,98,64,40,0.00,40.00,12,6,24,1.20
2013-10-14,-200.0,0.0,200.0,-99.9,-99.9,-99.9,100,98,97,0.00,40.00,25,9,40,0.28
2013-10-15,-200.0,0.0,200.0,-99.9,-99.9,-99.9,98,96,92,0.00,40.00,13,6,28,0.01
2013-10-16,-200.0,0.0,200.0,-99.9,-99.9,-99.9,98,83,56,0.00,40.00,15,5,23,0.04
2013-10-17,-200.0,0.0,200.0,-99.9,-99.9,-99.9,100,87,63,0.00,40.00,8,4,16,0.03
2013-10-18,-200.0,0.0,200.0,-99.9,-99.9,-99.9,93,65,56,0.00,40.00,9,6,22,0.02
2013-10-19,-200.0,0.0,200.0,-99.9,-99.9,-99.9,84,58,35,0.00,40.00,10,4,20,0.15
2013-10-20,-200.0,0.0,200.0,-99.9,-99.9,-99.9,98,78,57,0.00,40.00,11,4,18,0.08
2013-10-21,-200.0,0.0,200.0,-99.9,-99.9,-99.9,73,54,45,0.00,40.00,11,6,23,0.11
2013-10-22,-200.0,0.0,200.0,-99.9,-99.9,-99.9,69,57,38,0.00,40.00,11,6,25,0.01
2013-12-26,33.0,24.6,18.0,16.0,11.8,6.0,71,58,43,0.00,40.00,7,3,15,0.01
2013-12-27,39.0,30.5,24.0,19.0,16.8,15.0,71,57,44,0.00,40.00,8,5,18,0.01
2013-12-28,34.0,21.6,8.0,22.0,13.5,5.0,95,73,43,0.00,40.00,15,6,28,0.00
2013-12-29,19.0,13.7,6.0,15.0,10.7,4.0,91,87,78,0.00,40.00,12,5,24,0.00
2013-12-30,26.0,20.8,15.0,19.0,14.0,11.0,86,75,58,0.00,40.00,11,5,23,0.00
2013-12-31,31.0,26.5,23.0,25.0,21.3,17.0,97,80,62,0.00,40.00,13,7,25,0.00
2014-1-1,25.0,20.0,15.0,24.0,18.9,13.0,97,95,92,0.00,40.00,12,4,24,0.00